Time;durP1;ratioP1;P1;durP2;ratioP2;P2;SDS_P1;SDS_P2;PMS_P1;PMS_P2;Temp;Humidity;BMP_temperature;BMP_pressure;BME280_temperature;BME280_humidity;BME280_pressure;Samples;Min_cycle;Max_cycle;Signal;HPM_P1;HPM_P2
2022/10/13 00:01:39;;;;;;;3.47;1.80;;;;;;;8.29;74.78;101526.72;10456145;28;20046;-90
2022/10/13 00:06:41;;;;;;;3.47;1.63;;;;;;;8.23;75.31;101527.69;10468151;28;20056;-94
2022/10/13 00:11:43;;;;;;;2.15;1.63;;;;;;;8.18;75.32;101532.25;10442706;28;20037;-82
2022/10/13 00:16:45;;;;;;;2.33;1.60;;;;;;;8.05;75.27;101538.81;10445386;28;20523;-82
2022/10/13 00:21:48;;;;;;;3.95;1.88;;;;;;;7.90;75.66;101533.88;10443397;28;20041;-82
2022/10/13 00:26:51;;;;;;;2.28;1.30;;;;;;;7.77;76.86;101539.59;10445276;28;20046;-83
2022/10/13 00:31:54;;;;;;;3.40;1.55;;;;;;;8.01;76.24;101530.28;10426332;28;20053;-81
2022/10/13 00:36:57;;;;;;;2.88;1.50;;;;;;;8.23;75.44;101537.81;10401863;28;20045;-82
2022/10/13 00:41:59;;;;;;;2.47;1.80;;;;;;;8.23;75.89;101535.91;10441465;28;20045;-82
2022/10/13 00:47:02;;;;;;;2.30;1.60;;;;;;;8.21;76.06;101538.06;10440156;28;20408;-82
2022/10/13 00:52:06;;;;;;;4.53;1.50;;;;;;;8.20;75.93;101543.78;10443570;28;20076;-82
2022/10/13 00:57:08;;;;;;;3.13;1.30;;;;;;;8.12;76.11;101542.22;10441549;28;20057;-82
2022/10/13 01:02:11;;;;;;;6.43;1.55;;;;;;;8.10;76.04;101542.47;10442028;28;20040;-81
2022/10/13 01:07:15;;;;;;;4.05;1.63;;;;;;;7.78;76.94;101557.66;10443375;28;20053;-82
2022/10/13 01:12:42;;;;;;;4.38;1.58;;;;;;;8.02;77.37;101559.28;10441979;28;20057;-82
2022/10/13 01:18:06;;;;;;;2.53;1.40;;;;;;;8.22;76.49;101550.66;10431626;28;20505;-83
2022/10/13 01:23:24;;;;;;;1.92;0.95;;;;;;;8.27;76.28;101555.38;10439558;28;20033;-81
2022/10/13 01:28:51;;;;;;;4.10;1.60;;;;;;;8.29;76.41;101561.44;10443654;28;20049;-83
2022/10/13 01:34:07;;;;;;;5.35;1.52;;;;;;;8.36;75.89;101560.25;10425246;28;20053;-83
2022/10/13 01:39:21;;;;;;;2.78;1.35;;;;;;;8.47;74.82;101558.53;10441539;28;20422;-82
2022/10/13 01:44:33;;;;;;;3.10;1.45;;;;;;;8.42;75.30;101552.97;10442144;28;20408;-82
2022/10/13 01:49:36;;;;;;;3.13;1.10;;;;;;;8.51;75.42;101562.47;10414922;28;20041;-82
2022/10/13 01:54:38;;;;;;;3.15;1.50;;;;;;;8.55;75.29;101557.34;10449280;28;20056;-82
2022/10/13 01:59:40;;;;;;;6.63;1.63;;;;;;;8.33;75.52;101568.94;10450384;28;20052;-82
2022/10/13 02:05:13;;;;;;;3.65;1.10;;;;;;;8.24;75.83;101564.06;10448474;28;20061;-82
2022/10/13 02:10:26;;;;;;;2.40;1.23;;;;;;;8.18;75.75;101568.63;10449213;28;20045;-83
2022/10/13 02:15:36;;;;;;;1.63;1.20;;;;;;;8.15;76.00;101556.25;10432063;28;20566;-82
2022/10/13 02:20:43;;;;;;;1.48;1.20;;;;;;;8.29;75.84;101565.00;10425633;28;20436;-82
2022/10/13 02:25:45;;;;;;;4.47;1.45;;;;;;;8.33;76.22;101574.41;10449903;28;20037;-82
2022/10/13 02:30:48;;;;;;;3.08;1.50;;;;;;;8.29;76.09;101577.84;10450412;28;20060;-84
2022/10/13 02:35:51;;;;;;;2.55;1.88;;;;;;;8.37;75.11;101563.81;10447470;28;20048;-82
2022/10/13 02:40:53;;;;;;;5.07;1.88;;;;;;;8.40;75.59;101571.53;10447753;28;20804;-82
2022/10/13 02:45:56;;;;;;;2.33;1.13;;;;;;;8.31;74.87;101573.78;10448529;28;20033;-82
2022/10/13 02:50:58;;;;;;;1.58;1.10;;;;;;;8.08;75.61;101584.81;10445801;28;20065;-82
2022/10/13 02:56:00;;;;;;;3.38;1.35;;;;;;;7.94;76.13;101581.50;10448924;28;20064;-83
2022/10/13 03:01:12;;;;;;;3.33;1.58;;;;;;;7.77;75.99;101584.13;10447594;28;20041;-83
2022/10/13 03:06:18;;;;;;;3.95;1.42;;;;;;;7.91;75.92;101579.25;10436248;28;20511;-82
2022/10/13 03:11:20;;;;;;;5.00;1.48;;;;;;;8.01;75.62;101586.84;10430946;28;20048;-82
2022/10/13 03:16:22;;;;;;;3.00;1.20;;;;;;;7.82;76.18;101587.00;10447787;28;20058;-84
2022/10/13 03:21:24;;;;;;;3.08;1.40;;;;;;;7.90;76.59;101598.63;10446744;28;20044;-82
2022/10/13 03:26:27;;;;;;;2.28;1.40;;;;;;;7.84;76.19;101595.78;10447053;28;20048;-83
2022/10/13 03:31:33;;;;;;;1.42;1.30;;;;;;;7.60;76.42;101587.84;10447566;28;20037;-81
2022/10/13 03:36:37;;;;;;;4.00;1.35;;;;;;;7.68;76.57;101598.41;10445721;28;20042;-82
2022/10/13 03:41:40;;;;;;;3.28;1.40;;;;;;;7.60;77.21;101604.22;10446440;28;20412;-81
2022/10/13 03:46:42;;;;;;;2.58;1.25;;;;;;;7.73;76.36;101607.53;10446490;28;20048;-82
2022/10/13 03:51:46;;;;;;;7.05;2.15;;;;;;;7.85;76.06;101604.81;10443870;28;20045;-83
2022/10/13 03:56:48;;;;;;;2.65;1.33;;;;;;;7.79;75.10;101603.03;10445591;28;20053;-84
2022/10/13 04:01:55;;;;;;;4.05;1.50;;;;;;;7.59;75.86;101611.59;10445867;28;20057;-84
2022/10/13 04:07:01;;;;;;;3.33;1.30;;;;;;;7.51;76.36;101603.75;10447328;28;20037;-82
2022/10/13 04:12:04;;;;;;;6.28;2.03;;;;;;;7.22;77.43;101608.22;10447194;28;20508;-82
2022/10/13 04:17:06;;;;;;;5.43;1.95;;;;;;;7.18;78.33;101607.06;10445877;28;20418;-82
2022/10/13 04:22:08;;;;;;;4.72;1.88;;;;;;;7.49;77.35;101612.19;10445263;28;20053;-81
2022/10/13 04:27:10;;;;;;;4.82;1.60;;;;;;;7.64;76.99;101611.72;10446065;28;20068;-82
2022/10/13 04:32:13;;;;;;;4.65;1.52;;;;;;;7.66;76.24;101619.69;10444530;28;20037;-81
2022/10/13 04:37:16;;;;;;;3.38;1.38;;;;;;;7.76;76.64;101619.91;10478767;28;20056;-81
2022/10/13 04:42:18;;;;;;;2.80;1.73;;;;;;;7.35;76.48;101623.56;10460222;28;20053;-82
2022/10/13 04:47:20;;;;;;;4.18;1.88;;;;;;;6.88;77.84;101628.91;10445441;28;20037;-81
2022/10/13 04:52:22;;;;;;;5.10;1.70;;;;;;;6.56;79.11;101625.59;10445622;28;20523;-82
2022/10/13 04:57:25;;;;;;;4.18;1.95;;;;;;;6.71;80.52;101642.38;10443988;28;20034;-82
2022/10/13 05:02:27;;;;;;;2.85;1.70;;;;;;;6.93;80.35;101638.06;10444589;28;20041;-83
2022/10/13 05:07:31;;;;;;;2.47;1.45;;;;;;;8.41;79.65;101634.19;10443732;28;20046;-82
2022/10/13 05:12:33;;;;;;;4.00;1.30;;;;;;;8.95;75.51;101639.34;10465827;28;20045;-80
2022/10/13 05:17:36;;;;;;;3.63;1.83;;;;;;;9.27;73.64;101637.72;10427314;28;20040;-81
2022/10/13 05:22:43;;;;;;;5.00;2.30;;;;;;;9.47;71.83;101639.97;10458680;28;20053;-81
2022/10/13 05:27:45;;;;;;;3.03;1.90;;;;;;;9.64;72.06;101638.03;10453521;28;20044;-82
2022/10/13 05:32:47;;;;;;;4.28;1.70;;;;;;;9.79;71.30;101642.94;10444285;28;20052;-83
2022/10/13 05:37:49;;;;;;;3.38;1.65;;;;;;;9.74;70.03;101648.34;10440081;28;20041;-84
2022/10/13 05:42:52;;;;;;;3.58;2.03;;;;;;;9.74;71.02;101648.34;10448885;28;20045;-83
2022/10/13 05:47:54;;;;;;;6.18;1.65;;;;;;;9.98;69.89;101633.34;10461338;28;20048;-82
2022/10/13 05:52:56;;;;;;;4.15;1.67;;;;;;;10.09;70.43;101642.56;10455888;28;20416;-81
2022/10/13 05:58:00;;;;;;;7.18;1.83;;;;;;;10.36;69.44;101647.31;10443836;28;20141;-81
2022/10/13 06:03:06;;;;;;;3.25;2.08;;;;;;;10.60;67.49;101643.22;10441223;28;20424;-81
2022/10/13 06:08:09;;;;;;;4.35;1.90;;;;;;;10.60;68.38;101645.16;10426085;28;20045;-81
2022/10/13 06:13:12;;;;;;;9.68;4.53;;;;;;;10.84;67.50;101644.59;10443083;28;20056;-82
2022/10/13 06:18:14;;;;;;;6.43;2.60;;;;;;;11.00;67.51;101652.97;10443665;28;20045;-82
2022/10/13 06:23:17;;;;;;;5.15;2.38;;;;;;;11.12;66.71;101646.25;10442706;28;20128;-82
2022/10/13 06:28:20;;;;;;;5.82;2.80;;;;;;;11.25;66.11;101647.72;10442241;28;20213;-82
2022/10/13 06:33:23;;;;;;;8.80;3.40;;;;;;;11.48;65.41;101655.63;10444044;28;20041;-80
2022/10/13 06:38:26;;;;;;;6.18;2.50;;;;;;;11.62;65.05;101653.25;10449564;28;20459;-82
2022/10/13 06:43:28;;;;;;;3.90;2.55;;;;;;;11.91;64.51;101651.03;10448769;28;20046;-81
2022/10/13 06:48:33;;;;;;;9.85;4.82;;;;;;;11.91;64.28;101652.94;10431429;28;20543;-82
2022/10/13 06:53:36;;;;;;;10.48;4.63;;;;;;;11.95;63.64;101654.06;10447960;28;20492;-82
2022/10/13 06:58:39;;;;;;;8.48;4.40;;;;;;;11.90;64.49;101657.63;10441508;28;20045;-81
2022/10/13 07:03:41;;;;;;;4.20;2.97;;;;;;;12.30;62.94;101654.25;10447656;28;20037;-82
2022/10/13 07:08:44;;;;;;;5.10;2.70;;;;;;;12.72;61.58;101658.03;10439584;28;20045;-82
2022/10/13 07:13:46;;;;;;;4.13;2.05;;;;;;;12.85;60.51;101658.34;10448957;28;20049;-78
2022/10/13 07:18:48;;;;;;;6.47;2.00;;;;;;;13.07;59.83;101660.03;10433669;28;20056;-86
2022/10/13 07:23:51;;;;;;;4.85;1.90;;;;;;;13.20;58.85;101659.53;10449283;28;20045;-84
2022/10/13 07:28:53;;;;;;;4.63;2.03;;;;;;;13.35;58.29;101662.28;10447875;28;20075;-85
2022/10/13 07:33:57;;;;;;;4.43;2.30;;;;;;;13.48;57.86;101670.03;10447796;28;20412;-85
2022/10/13 07:39:02;;;;;;;;;;;;;;;13.46;57.45;101675.00;10431645;28;20050;-86
2022/10/13 07:44:04;;;;;;;2.33;1.42;;;;;;;13.69;57.17;101681.03;10443572;28;20333;-87
2022/10/13 07:49:06;;;;;;;1.45;1.35;;;;;;;14.06;55.35;101676.06;10449100;28;20056;-87
2022/10/13 07:54:09;;;;;;;2.65;1.40;;;;;;;14.19;54.76;101674.63;10448773;28;20041;-86
2022/10/13 07:59:11;;;;;;;2.22;1.15;;;;;;;14.26;54.55;101679.88;10446779;28;20036;-90
2022/10/13 08:04:13;;;;;;;2.47;1.10;;;;;;;14.47;53.58;101674.03;10447915;28;20041;-79
2022/10/13 08:09:16;;;;;;;2.63;1.30;;;;;;;14.51;53.30;101673.44;10444052;28;20037;-79
2022/10/13 08:14:18;;;;;;;2.80;1.08;;;;;;;14.72;52.95;101675.84;10413648;28;20052;-80
2022/10/13 08:19:21;;;;;;;2.92;1.40;;;;;;;14.85;51.87;101670.81;10447322;28;20500;-79
2022/10/13 08:24:23;;;;;;;2.28;1.25;;;;;;;14.87;51.83;101672.19;10445145;28;20041;-77
2022/10/13 08:29:26;;;;;;;2.95;1.10;;;;;;;14.72;51.51;101675.84;10442525;28;20045;-79
2022/10/13 08:34:28;;;;;;;3.80;1.05;;;;;;;14.36;51.64;101677.06;10447174;28;20052;-78
2022/10/13 08:39:30;;;;;;;3.40;1.08;;;;;;;13.39;53.03;101690.16;10446165;28;20048;-79
2022/10/13 08:44:39;;;;;;;2.03;1.20;;;;;;;12.76;54.18;101678.41;10445590;28;20427;-80
2022/10/13 08:49:41;;;;;;;2.97;1.00;;;;;;;12.31;55.60;101683.44;10412580;28;20045;-81
2022/10/13 08:54:44;;;;;;;1.73;1.00;;;;;;;12.20;55.80;101683.66;10445257;28;20042;-82
2022/10/13 08:59:46;;;;;;;2.65;0.80;;;;;;;12.07;55.32;101679.47;10436667;28;20064;-81
2022/10/13 09:04:51;;;;;;;0.90;0.70;;;;;;;11.80;55.91;101676.78;10443380;28;20048;-80
2022/10/13 09:09:53;;;;;;;3.28;1.40;;;;;;;11.36;56.88;101670.63;10448104;28;20053;-80
2022/10/13 09:15:10;;;;;;;1.15;0.73;;;;;;;11.41;57.37;101676.16;10442926;28;20049;-80
2022/10/13 09:20:21;;;;;;;3.28;0.80;;;;;;;11.52;56.91;101672.44;10444644;28;20045;-80
2022/10/13 09:25:25;;;;;;;1.50;0.68;;;;;;;11.63;57.03;101673.34;10445885;28;20053;-81
2022/10/13 09:30:43;;;;;;;1.63;0.90;;;;;;;12.49;57.13;101673.06;10443394;28;20522;-81
2022/10/13 09:35:48;;;;;;;2.45;0.50;;;;;;;12.14;55.18;101665.44;10443095;28;20040;-81
2022/10/13 09:41:05;;;;;;;0.95;0.80;;;;;;;11.56;57.24;101676.31;10443610;28;20060;-81
2022/10/13 09:46:20;;;;;;;3.45;1.35;;;;;;;11.46;57.78;101670.75;10427360;28;20044;-81
2022/10/13 09:51:35;;;;;;;1.48;0.60;;;;;;;11.27;57.35;101674.94;10445999;28;20037;-82
2022/10/13 09:56:51;;;;;;;1.77;0.50;;;;;;;11.05;57.67;101669.50;10443964;28;20068;-81
2022/10/13 10:01:57;;;;;;;1.60;0.60;;;;;;;10.94;58.55;101671.34;10445136;28;20046;-81
2022/10/13 10:07:00;;;;;;;1.75;0.80;;;;;;;10.85;57.92;101664.63;10446843;28;20040;-82
2022/10/13 10:12:03;;;;;;;0.98;0.50;;;;;;;10.97;58.16;101665.31;10450697;28;20057;-82
2022/10/13 10:17:35;;;;;;;0.40;0.40;;;;;;;10.79;57.51;101668.41;10444581;28;20056;-81
2022/10/13 10:22:47;;;;;;;0.68;0.55;;;;;;;10.87;56.49;101656.97;10443651;28;20053;-81
2022/10/13 10:28:09;;;;;;;1.88;0.70;;;;;;;10.64;55.52;101663.59;10451397;28;20037;-79
2022/10/13 10:33:15;;;;;;;2.47;0.50;;;;;;;10.72;57.11;101656.78;10424812;28;20641;-79
2022/10/13 10:38:47;;;;;;;2.53;0.47;;;;;;;10.93;56.20;101655.91;10423439;28;20393;-81
2022/10/13 10:44:10;;;;;;;0.70;0.43;;;;;;;10.82;54.97;101654.16;10440520;28;20052;-81
2022/10/13 10:49:23;;;;;;;0.65;0.57;;;;;;;10.71;54.65;101664.19;10447189;28;20120;-83
2022/10/13 10:54:42;;;;;;;1.83;0.35;;;;;;;10.61;55.95;101658.59;10448999;28;20042;-83
2022/10/13 11:00:12;;;;;;;0.77;0.40;;;;;;;10.73;55.68;101648.28;10432935;28;20052;-82
2022/10/13 11:05:15;;;;;;;3.90;1.08;;;;;;;10.88;55.04;101653.97;10449187;28;20048;-81
2022/10/13 11:10:20;;;;;;;1.52;0.43;;;;;;;12.10;55.14;101647.81;10449968;28;20512;-81
2022/10/13 11:15:29;;;;;;;0.85;0.52;;;;;;;12.38;51.61;101652.94;10446931;28;20049;-83
2022/10/13 11:20:35;;;;;;;1.10;0.35;;;;;;;12.59;50.74;101645.56;10449543;28;20041;-82
2022/10/13 11:25:40;;;;;;;1.85;0.60;;;;;;;12.61;51.08;101641.44;10449099;28;20047;-82
2022/10/13 11:30:51;;;;;;;0.68;0.25;;;;;;;12.61;49.69;101638.69;10449790;28;20041;-82
2022/10/13 11:35:53;;;;;;;0.30;0.20;;;;;;;12.45;49.82;101636.16;10446940;28;20048;-82
2022/10/13 11:41:31;;;;;;;0.98;0.68;;;;;;;12.69;49.62;101637.38;10447890;28;20045;-82
2022/10/13 11:46:50;;;;;;;1.75;0.40;;;;;;;12.17;49.36;101632.75;10446339;28;20052;-82
2022/10/13 11:52:09;;;;;;;2.95;0.55;;;;;;;12.13;50.07;101637.09;10446395;28;20038;-82
2022/10/13 11:57:23;;;;;;;2.28;0.80;;;;;;;12.44;50.06;101632.56;10446694;28;20056;-82
2022/10/13 12:02:26;;;;;;;1.33;0.60;;;;;;;12.02;49.60;101632.66;10448109;28;20049;-83
2022/10/13 12:07:34;;;;;;;0.45;0.40;;;;;;;11.95;49.83;101624.63;10443010;28;20508;-82
2022/10/13 12:12:36;;;;;;;0.82;0.50;;;;;;;11.91;51.09;101622.69;10404610;28;20050;-82
2022/10/13 12:17:43;;;;;;;0.60;0.30;;;;;;;12.14;49.84;101613.19;10429743;28;20244;-81
2022/10/13 12:22:52;;;;;;;1.70;0.52;;;;;;;12.40;49.42;101619.63;10415674;28;20041;-85
2022/10/13 12:27:58;;;;;;;0.70;0.32;;;;;;;12.33;49.21;101608.88;10443303;28;20034;-82
2022/10/13 12:33:00;;;;;;;0.95;0.50;;;;;;;12.27;49.96;101602.50;10444237;28;20404;-84
2022/10/13 12:38:06;;;;;;;0.45;0.45;;;;;;;12.26;49.71;101608.28;10446327;28;20045;-79
2022/10/13 12:43:16;;;;;;;0.90;0.60;;;;;;;11.97;50.27;101599.59;10445248;28;20053;-79
2022/10/13 12:48:34;;;;;;;0.77;0.50;;;;;;;12.14;51.00;101604.91;10438330;28;20052;-81
2022/10/13 12:53:38;;;;;;;0.60;0.60;;;;;;;12.14;51.58;101610.41;10415827;28;20045;-82
2022/10/13 12:58:42;;;;;;;3.03;1.00;;;;;;;11.85;51.87;101590.75;10443316;28;20142;-80
2022/10/13 13:03:44;;;;;;;2.08;0.60;;;;;;;12.15;52.91;101590.06;10438493;28;20052;-78
2022/10/13 13:08:46;;;;;;;0.70;0.70;;;;;;;12.22;52.85;101585.16;10425764;28;20037;-80
2022/10/13 13:13:48;;;;;;;1.23;0.90;;;;;;;12.06;52.83;101587.00;10424951;28;20057;-80
2022/10/13 13:18:51;;;;;;;2.30;1.00;;;;;;;12.05;53.38;101582.59;10435034;28;20252;-81
2022/10/13 13:23:54;;;;;;;1.08;0.80;;;;;;;12.00;53.16;101588.09;10441418;28;20412;-80
2022/10/13 13:28:56;;;;;;;2.78;1.20;;;;;;;12.25;52.88;101582.69;10427355;28;20397;-79
2022/10/13 13:33:58;;;;;;;1.88;0.95;;;;;;;12.25;52.85;101587.38;10443305;28;20052;-79
2022/10/13 13:39:00;;;;;;;1.85;0.80;;;;;;;12.35;52.98;101585.50;10444722;28;20042;-79
2022/10/13 13:44:03;;;;;;;1.48;0.77;;;;;;;12.28;53.17;101582.16;10446410;28;20038;-79
2022/10/13 13:49:05;;;;;;;2.45;0.80;;;;;;;12.29;52.64;101583.81;10445619;28;20519;-78
2022/10/13 13:54:07;;;;;;;1.38;0.63;;;;;;;12.37;53.12;101583.28;10444336;28;20037;-78
2022/10/13 13:59:09;;;;;;;1.55;0.80;;;;;;;12.39;52.78;101580.28;10452390;28;20042;-78
2022/10/13 14:04:11;;;;;;;2.65;1.00;;;;;;;12.37;52.27;101588.81;10447164;28;20061;-85
2022/10/13 14:09:13;;;;;;;2.80;1.00;;;;;;;11.70;53.95;101588.72;10436266;28;20042;-80
2022/10/13 14:14:16;;;;;;;2.45;0.88;;;;;;;11.59;54.68;101585.06;10444885;28;20416;-81
2022/10/13 14:19:18;;;;;;;2.47;1.30;;;;;;;11.77;54.70;101590.13;10449001;28;20041;-78
2022/10/13 14:24:20;;;;;;;2.83;0.88;;;;;;;11.95;54.14;101588.88;10451312;28;20171;-79
2022/10/13 14:29:22;;;;;;;2.08;1.30;;;;;;;11.64;54.29;101590.59;10446398;28;20045;-86
2022/10/13 14:34:24;;;;;;;3.17;1.63;;;;;;;11.02;57.09;101584.88;10446623;28;20401;-86
2022/10/13 14:39:26;;;;;;;3.92;1.48;;;;;;;10.69;58.90;101585.94;10454670;28;20048;-86
2022/10/13 14:44:28;;;;;;;3.55;1.75;;;;;;;10.36;60.42;101585.03;10452248;28;20041;-87
2022/10/13 14:49:31;;;;;;;3.88;1.70;;;;;;;9.95;61.91;101584.50;10455619;28;20045;-88
2022/10/13 14:54:33;;;;;;;3.22;1.98;;;;;;;9.68;62.33;101589.03;10463893;28;20037;-85
2022/10/13 14:59:35;;;;;;;5.70;2.38;;;;;;;9.45;64.31;101594.72;10452785;28;20033;-86
2022/10/13 15:04:37;;;;;;;5.43;2.20;;;;;;;9.28;65.44;101595.56;10450674;28;20424;-88
2022/10/13 15:09:40;;;;;;;4.18;2.45;;;;;;;9.16;65.75;101589.31;10448838;28;20029;-83
2022/10/13 15:14:42;;;;;;;9.05;3.63;;;;;;;9.10;66.68;101586.75;10432835;28;20050;-81
2022/10/13 15:19:44;;;;;;;6.03;3.00;;;;;;;9.03;66.70;101593.25;10446861;28;20401;-82
2022/10/13 15:24:46;;;;;;;4.35;2.10;;;;;;;8.94;66.60;101594.72;10448570;28;20049;-82
2022/10/13 15:29:48;;;;;;;2.15;1.73;;;;;;;8.92;67.35;101594.13;10447208;28;20060;-81
2022/10/13 15:34:50;;;;;;;3.35;1.83;;;;;;;8.87;67.65;101587.75;10448813;28;20045;-83
2022/10/13 15:39:52;;;;;;;1.98;1.30;;;;;;;9.55;72.28;101589.41;10448817;28;20046;-79
2022/10/13 15:44:55;;;;;;;3.10;2.17;;;;;;;10.73;65.30;101582.41;10448603;28;20068;-80
2022/10/13 15:49:57;;;;;;;4.60;2.25;;;;;;;10.33;64.97;101591.03;10443572;28;20045;-80
2022/10/13 15:54:59;;;;;;;4.20;2.05;;;;;;;10.06;65.50;101595.59;10422753;28;20042;-81
2022/10/13 16:00:02;;;;;;;3.65;1.77;;;;;;;10.04;66.20;101592.28;10446592;28;20041;-81
2022/10/13 16:05:14;;;;;;;3.58;1.73;;;;;;;9.72;66.86;101592.97;10446115;28;20034;-81
2022/10/13 16:10:16;;;;;;;1.63;1.33;;;;;;;9.61;68.57;101593.88;10445490;28;20472;-78
2022/10/13 16:15:18;;;;;;;5.95;1.45;;;;;;;9.71;68.07;101599.50;10429664;28;20049;-81
2022/10/13 16:20:25;;;;;;;2.53;1.58;;;;;;;9.56;68.83;101602.88;10446561;28;20049;-79
2022/10/13 16:25:29;;;;;;;1.80;1.30;;;;;;;9.68;68.75;101581.66;10446312;28;20524;-80
2022/10/13 16:30:31;;;;;;;4.00;1.33;;;;;;;9.40;69.81;101597.41;10460999;28;20056;-80
2022/10/13 16:35:33;;;;;;;1.40;1.10;;;;;;;9.11;70.90;101597.47;10458805;28;20057;-80
2022/10/13 16:40:39;;;;;;;2.72;1.50;;;;;;;9.04;71.49;101592.16;10446064;28;20049;-81
2022/10/13 16:45:42;;;;;;;2.38;1.60;;;;;;;9.05;72.06;101591.09;10446381;28;20052;-80
2022/10/13 16:50:44;;;;;;;2.17;1.50;;;;;;;9.22;71.45;101582.88;10449619;28;20080;-81
2022/10/13 16:55:46;;;;;;;3.50;1.40;;;;;;;9.43;71.33;101580.44;10445533;28;20056;-80
2022/10/13 17:00:50;;;;;;;8.88;1.60;;;;;;;9.56;70.59;101569.97;10446751;28;20523;-80
2022/10/13 17:05:52;;;;;;;3.75;1.50;;;;;;;9.06;71.53;101590.00;10433987;28;20045;-81
2022/10/13 17:10:54;;;;;;;2.05;1.42;;;;;;;8.70;73.01;101591.28;10445164;28;20045;-80
2022/10/13 17:16:21;;;;;;;3.42;1.60;;;;;;;8.32;74.07;101588.28;10444215;28;20685;-81
2022/10/13 17:21:23;;;;;;;3.78;1.70;;;;;;;8.10;75.03;101591.69;10453779;28;20049;-81
2022/10/13 17:26:25;;;;;;;2.60;1.48;;;;;;;8.14;76.59;101579.19;10443235;28;20058;-81
2022/10/13 17:31:28;;;;;;;3.05;1.40;;;;;;;8.08;76.67;101584.81;10444648;28;20072;-81
2022/10/13 17:36:32;;;;;;;1.65;1.20;;;;;;;8.06;76.91;101576.84;10443591;28;20042;-80
2022/10/13 17:41:44;;;;;;;2.55;1.20;;;;;;;7.94;77.81;101573.31;10444100;28;20495;-80
2022/10/13 17:46:50;;;;;;;2.30;0.95;;;;;;;7.91;78.24;101573.78;10421327;28;20382;-79
2022/10/13 17:51:53;;;;;;;2.08;1.48;;;;;;;7.83;78.48;101568.72;10440245;28;20042;-79
2022/10/13 17:56:57;;;;;;;1.83;1.00;;;;;;;7.80;78.38;101577.34;10437210;28;20580;-78
2022/10/13 18:02:00;;;;;;;2.25;1.00;;;;;;;7.78;78.85;101579.50;10433933;28;20041;-78
2022/10/13 18:07:08;;;;;;;2.53;1.40;;;;;;;7.83;78.91;101575.00;10429728;28;20038;-77
2022/10/13 18:12:11;;;;;;;2.50;1.27;;;;;;;7.87;79.49;101569.88;10431140;28;20535;-77
2022/10/13 18:17:18;;;;;;;2.13;1.20;;;;;;;7.85;79.72;101564.66;10443078;28;20076;-78
2022/10/13 18:22:20;;;;;;;2.40;1.05;;;;;;;7.88;79.56;101574.28;10438757;28;20065;-78
2022/10/13 18:27:22;;;;;;;3.75;1.50;;;;;;;7.87;80.19;101575.34;10439141;28;20046;-77
2022/10/13 18:32:24;;;;;;;3.00;1.40;;;;;;;8.34;79.38;101575.25;10443878;28;20033;-78
2022/10/13 18:37:27;;;;;;;1.42;1.20;;;;;;;8.53;78.85;101575.91;10442112;28;20045;-81
2022/10/13 18:42:29;;;;;;;2.78;1.40;;;;;;;8.71;77.81;101579.25;10437992;28;20532;-83
2022/10/13 18:47:31;;;;;;;2.08;1.42;;;;;;;8.86;77.03;101572.41;10427117;28;20403;-80
2022/10/13 18:52:33;;;;;;;2.80;1.40;;;;;;;8.81;76.53;101577.75;10435813;28;20037;-78
2022/10/13 18:57:36;;;;;;;6.13;1.92;;;;;;;8.70;77.50;101572.13;10441237;28;20423;-79
2022/10/13 19:02:39;;;;;;;3.65;1.55;;;;;;;8.65;77.62;101568.44;10439895;28;20664;-81
2022/10/13 19:07:41;;;;;;;2.05;1.70;;;;;;;8.57;77.31;101561.47;10435677;28;20041;-82
2022/10/13 19:12:43;;;;;;;3.95;1.55;;;;;;;8.52;78.27;101560.56;10438476;28;20041;-80
2022/10/13 19:17:45;;;;;;;1.88;1.45;;;;;;;8.55;78.00;101560.91;10440014;28;20128;-80
2022/10/13 19:22:47;;;;;;;4.78;2.30;;;;;;;8.73;77.83;101559.84;10439131;28;20037;-78
2022/10/13 19:27:51;;;;;;;3.42;1.83;;;;;;;8.72;77.79;101547.25;10441783;28;20499;-80
2022/10/13 19:32:53;;;;;;;7.18;1.95;;;;;;;8.72;77.28;101547.25;10439482;28;20041;-80
2022/10/13 19:37:55;;;;;;;3.30;1.80;;;;;;;8.90;77.07;101548.94;10442366;28;20060;-82
2022/10/13 19:43:01;;;;;;;3.08;1.38;;;;;;;8.83;76.88;101553.72;10443298;28;20156;-81
2022/10/13 19:48:08;;;;;;;2.58;1.27;;;;;;;8.71;77.20;101551.06;10445762;28;20037;-82
2022/10/13 19:53:11;;;;;;;4.18;1.60;;;;;;;8.69;77.13;101534.91;10446111;28;20045;-79
2022/10/13 19:58:15;;;;;;;3.28;1.52;;;;;;;8.85;77.46;101546.06;10461107;28;20038;-77
2022/10/13 20:03:17;;;;;;;2.15;1.60;;;;;;;8.99;77.10;101545.50;10441675;28;20098;-78
2022/10/13 20:08:20;;;;;;;2.92;1.10;;;;;;;9.16;76.59;101540.03;10434630;28;20037;-74
2022/10/13 20:13:23;;;;;;;1.48;1.23;;;;;;;9.10;76.78;101541.03;10434287;28;20054;-78
2022/10/13 20:18:26;;;;;;;3.15;1.33;;;;;;;9.12;76.90;101536.16;10437774;28;20334;-78
2022/10/13 20:23:28;;;;;;;2.50;1.33;;;;;;;9.20;76.83;101524.78;10436645;28;20049;-80
2022/10/13 20:28:30;;;;;;;2.47;1.50;;;;;;;9.27;75.77;101533.66;10439022;28;20044;-82
2022/10/13 20:33:33;;;;;;;3.47;1.40;;;;;;;9.18;76.38;101537.03;10443537;28;20045;-79
2022/10/13 20:38:35;;;;;;;2.75;1.48;;;;;;;9.10;76.60;101549.25;10441892;28;20053;-77
2022/10/13 20:43:37;;;;;;;2.75;1.45;;;;;;;9.01;76.43;101534.31;10439057;28;20037;-79
2022/10/13 20:48:40;;;;;;;3.97;1.60;;;;;;;8.96;77.40;101537.81;10445698;28;20412;-77
2022/10/13 20:53:43;;;;;;;1.90;1.30;;;;;;;9.02;77.71;101552.38;10448701;28;20411;-75
2022/10/13 20:58:46;;;;;;;3.03;1.77;;;;;;;9.18;77.22;101535.13;10440685;28;20037;-78
2022/10/13 21:03:52;;;;;;;2.75;1.45;;;;;;;9.18;76.21;101539.78;10448597;28;20040;-81
2022/10/13 21:08:54;;;;;;;2.38;1.30;;;;;;;9.23;77.07;101551.66;10451658;28;20487;-80
2022/10/13 21:13:56;;;;;;;2.47;1.23;;;;;;;8.85;77.26;101546.94;10440525;28;20056;-79
2022/10/13 21:18:59;;;;;;;1.58;0.90;;;;;;;8.48;77.83;101546.53;10435125;28;20054;-79
2022/10/13 21:24:03;;;;;;;3.83;1.00;;;;;;;8.31;79.30;101542.88;10439110;28;20053;-84
2022/10/13 21:29:05;;;;;;;2.67;1.23;;;;;;;8.11;80.13;101537.84;10445686;28;20053;-83
2022/10/13 21:34:09;;;;;;;3.47;1.40;;;;;;;8.04;80.32;101539.91;10443869;28;20060;-82
2022/10/13 21:39:12;;;;;;;2.72;1.05;;;;;;;8.12;80.48;101540.31;10438078;28;20405;-81
2022/10/13 21:44:14;;;;;;;1.58;1.10;;;;;;;8.09;80.71;101532.63;10441963;28;20038;-83
2022/10/13 21:49:16;;;;;;;1.73;0.95;;;;;;;8.04;80.40;101535.25;10431791;28;20042;-82
2022/10/13 21:54:18;;;;;;;3.90;1.05;;;;;;;7.98;81.53;101530.75;10477719;28;20044;-82
2022/10/13 21:59:21;;;;;;;3.80;1.10;;;;;;;7.99;81.76;101537.91;10443421;28;20140;-82
2022/10/13 22:04:23;;;;;;;1.23;0.95;;;;;;;8.02;81.45;101537.41;10447177;28;20061;-81
2022/10/13 22:09:25;;;;;;;2.97;1.30;;;;;;;8.01;81.33;101534.91;10455528;28;20049;-84
2022/10/13 22:14:30;;;;;;;3.13;0.90;;;;;;;8.06;81.55;101544.03;10488164;28;20049;-79
2022/10/13 22:19:33;;;;;;;4.22;1.10;;;;;;;7.96;81.20;101532.06;10454394;28;20668;-77
2022/10/13 22:24:35;;;;;;;3.00;1.02;;;;;;;7.99;81.65;101531.59;10447691;28;20051;-77
2022/10/13 22:29:37;;;;;;;1.17;0.93;;;;;;;7.99;81.89;101529.69;10430093;28;20052;-77
2022/10/13 22:34:39;;;;;;;3.78;1.05;;;;;;;8.01;81.44;101530.28;10443641;28;20416;-77
2022/10/13 22:39:41;;;;;;;1.65;0.90;;;;;;;8.05;81.88;101527.88;10450953;28;20045;-77
2022/10/13 22:44:44;;;;;;;2.15;1.33;;;;;;;8.08;81.13;101524.66;10456186;28;20511;-77
2022/10/13 22:49:46;;;;;;;1.25;0.90;;;;;;;8.10;80.79;101525.25;10473588;28;20041;-77
2022/10/13 22:54:52;;;;;;;4.05;1.10;;;;;;;8.14;81.37;101519.03;10449720;28;20097;-76
2022/10/13 22:59:54;;;;;;;1.42;1.15;;;;;;;8.11;81.42;101525.00;10449634;28;20038;-77
2022/10/13 23:04:56;;;;;;;0.90;0.77;;;;;;;8.10;81.21;101520.59;10447782;28;20037;-77
2022/10/13 23:09:59;;;;;;;0.80;0.80;;;;;;;8.13;80.86;101525.59;10449788;28;20042;-77
2022/10/13 23:15:01;;;;;;;1.60;1.00;;;;;;;8.15;81.29;101515.22;10447283;28;20053;-76
2022/10/13 23:20:04;;;;;;;1.85;1.00;;;;;;;8.22;81.09;101514.28;10446849;28;20038;-77
2022/10/13 23:25:06;;;;;;;2.13;0.80;;;;;;;8.22;81.40;101515.09;10447012;28;20037;-77
2022/10/13 23:30:09;;;;;;;2.90;1.02;;;;;;;8.22;81.49;101515.09;10446880;28;20416;-76